Time;durP1;ratioP1;P1;durP2;ratioP2;P2;SDS_P1;SDS_P2;PMS_P1;PMS_P2;Temp;Humidity;BMP_temperature;BMP_pressure;BME280_temperature;BME280_humidity;BME280_pressure;Samples;Min_cycle;Max_cycle;Signal;HPM_P1;HPM_P2
2022/11/11 00:01:29;;;;;;;;;10.33;8.00;;;;;12.90;100.00;102693.91;5058365;28;59672;-75
2022/11/11 00:03:55;;;;;;;;;9.67;7.00;;;;;12.88;100.00;102691.16;5054884;28;45651;-74
2022/11/11 00:06:21;;;;;;;;;9.00;6.00;;;;;12.84;100.00;102691.97;5058495;28;45498;-74
2022/11/11 00:08:47;;;;;;;;;9.00;9.00;;;;;12.80;100.00;102698.00;5057752;28;46373;-74
2022/11/11 00:11:13;;;;;;;;;8.33;6.00;;;;;12.79;100.00;102696.22;5058151;28;45345;-74
2022/11/11 00:13:40;;;;;;;;;10.33;8.33;;;;;12.68;100.00;102682.63;5040965;28;45591;-74
2022/11/11 00:16:10;;;;;;;;;10.67;6.33;;;;;12.75;100.00;102696.94;5057525;28;45328;-73
2022/11/11 00:27:12;;;;;;;;;5.67;5.67;;;;;12.61;100.00;102674.41;5099034;27;45366;-75
2022/11/11 00:29:38;;;;;;;;;9.00;8.00;;;;;12.63;100.00;102689.50;5098831;27;45582;-74
2022/11/11 00:32:23;;;;;;;;;4.67;4.67;;;;;12.60;100.00;102689.41;5098973;27;45353;-75
2022/11/11 00:37:38;;;;;;;;;5.00;5.00;;;;;12.53;100.00;102693.63;5086078;27;45424;-76
2022/11/11 00:40:03;;;;;;;;;7.33;5.67;;;;;12.57;100.00;102710.53;5095714;27;45729;-73
2022/11/11 00:42:29;;;;;;;;;5.67;5.00;;;;;12.55;100.00;102704.25;5086104;27;45788;-75
2022/11/11 00:44:54;;;;;;;;;7.33;6.33;;;;;12.57;100.00;102718.47;5090893;27;60313;-75
2022/11/11 00:52:50;;;;;;;;;8.00;4.00;;;;;12.62;100.00;102727.44;5082405;27;45486;-73
2022/11/11 00:55:16;;;;;;;;;8.33;5.00;;;;;12.61;100.00;102714.16;5088069;27;45695;-73
2022/11/11 00:57:41;;;;;;;;;11.00;5.33;;;;;12.71;100.00;102726.84;5083297;27;46341;-73
2022/11/11 01:00:07;;;;;;;;;7.33;5.00;;;;;12.75;100.00;102736.72;5082488;27;45571;-74
2022/11/11 01:02:32;;;;;;;;;5.67;5.33;;;;;12.77;100.00;102730.59;5083517;27;45592;-74
2022/11/11 01:04:58;;;;;;;;;6.33;5.00;;;;;12.81;100.00;102715.69;5085265;27;47415;-74
2022/11/11 01:07:23;;;;;;;;;6.00;6.00;;;;;12.83;100.00;102717.53;5078347;27;45411;-73
2022/11/11 01:09:48;;;;;;;;;6.00;3.00;;;;;12.81;100.00;102715.69;5094315;27;55326;-73
2022/11/11 01:12:14;;;;;;;;;5.00;5.00;;;;;12.83;100.00;102714.00;5096196;27;46090;-74
2022/11/11 01:14:40;;;;;;;;;7.33;7.00;;;;;12.78;100.00;102704.97;5095820;27;45484;-73
2022/11/11 01:17:05;;;;;;;;;4.00;4.00;;;;;12.76;100.00;102707.59;5095397;27;45449;-72
2022/11/11 01:19:31;;;;;;;;;6.00;6.00;;;;;12.77;100.00;102705.84;5092128;27;45796;-73
2022/11/11 01:21:57;;;;;;;;;5.00;5.00;;;;;12.81;100.00;102711.28;5095748;27;45509;-74
2022/11/11 01:24:22;;;;;;;;;8.33;6.00;;;;;12.81;100.00;102705.09;5095976;27;45514;-73
2022/11/11 01:26:48;;;;;;;;;5.33;5.33;;;;;12.83;100.00;102703.38;5095297;27;45445;-73
2022/11/11 01:29:13;;;;;;;;;5.33;5.33;;;;;12.83;100.00;102714.00;5097300;27;45636;-73
2022/11/11 01:31:38;;;;;;;;;6.00;6.00;;;;;12.83;100.00;102709.59;5093382;27;49818;-73
2022/11/11 01:34:04;;;;;;;;;5.33;5.00;;;;;12.83;100.00;102708.69;5097380;27;45525;-73
2022/11/11 01:36:30;;;;;;;;;7.00;6.00;;;;;12.84;100.00;102711.41;5097119;27;45324;-74
2022/11/11 01:38:57;;;;;;;;;7.00;6.00;;;;;12.90;100.00;102721.31;5094937;27;45662;-74
2022/11/11 01:41:32;;;;;;;;;8.67;7.33;;;;;12.88;100.00;102712.38;5097747;27;45521;-73
2022/11/11 01:44:19;;;;;;;;;11.67;7.67;;;;;12.97;100.00;102717.97;5096964;27;45445;-73
2022/11/11 01:46:48;;;;;;;;;6.00;5.00;;;;;12.98;100.00;102717.13;5097873;27;45481;-74
2022/11/11 01:49:40;;;;;;;;;7.67;5.33;;;;;12.98;100.00;102721.53;5096151;27;45385;-74
2022/11/11 01:52:11;;;;;;;;;11.33;9.67;;;;;13.01;100.00;102726.94;5074184;27;45353;-74
2022/11/11 01:54:41;;;;;;;;;10.67;6.67;;;;;13.04;100.00;102727.03;5095818;27;45212;-74
2022/11/11 01:57:22;;;;;;;;;8.67;7.33;;;;;13.00;100.00;102726.06;5095883;27;45499;-74
2022/11/11 01:59:50;;;;;;;;;10.33;7.00;;;;;13.04;100.00;102713.75;5096108;27;45822;-73
2022/11/11 02:02:38;;;;;;;;;13.00;9.00;;;;;13.08;100.00;102715.66;5091097;27;45529;-73
2022/11/11 02:07:48;;;;;;;;;9.33;7.67;;;;;13.02;100.00;102705.78;5074888;27;45388;-74
2022/11/11 02:10:14;;;;;;;;;7.00;5.67;;;;;13.12;100.00;102725.53;5095607;27;55373;-74
2022/11/11 02:15:23;;;;;;;;;11.00;8.33;;;;;13.17;100.00;102723.03;5097441;27;45492;-74
2022/11/11 02:17:49;;;;;;;;;10.33;8.33;;;;;13.18;100.00;102722.16;5090222;27;52937;-74
2022/11/11 02:20:18;;;;;;;;;5.00;5.00;;;;;13.14;100.00;102710.53;5092259;27;47200;-73
2022/11/11 02:22:59;;;;;;;;;6.33;6.00;;;;;13.12;100.00;102712.25;5092247;27;45469;-73
2022/11/11 02:25:27;;;;;;;;;6.33;6.00;;;;;13.17;100.00;102712.41;5074910;27;45355;-74
2022/11/11 02:27:57;;;;;;;;;5.33;5.00;;;;;13.11;100.00;102699.88;5096098;27;45438;-73
2022/11/11 02:30:23;;;;;;;;;7.33;7.33;;;;;13.14;100.00;102712.31;5074137;27;46990;-73
2022/11/11 02:32:50;;;;;;;;;6.67;6.33;;;;;13.10;100.00;102698.97;5094176;27;49749;-73
2022/11/11 02:35:28;;;;;;;;;6.00;6.00;;;;;13.08;100.00;102699.75;5091597;27;45370;-73
2022/11/11 02:37:53;;;;;;;;;10.33;7.00;;;;;13.07;100.00;102704.16;5071640;28;45693;-73
2022/11/11 02:40:29;;;;;;;;;11.00;6.00;;;;;13.07;100.00;102706.81;5093374;27;57564;-73
2022/11/11 02:42:55;;;;;;;;;6.67;6.33;;;;;13.10;100.00;102714.88;5094192;27;45327;-74
2022/11/11 02:45:20;;;;;;;;;7.00;5.67;;;;;13.07;100.00;102703.25;5094427;27;46549;-73
2022/11/11 02:47:46;;;;;;;;;6.67;5.00;;;;;13.11;100.00;102716.66;5090662;27;45395;-74
2022/11/11 02:50:11;;;;;;;;;6.00;5.67;;;;;13.08;100.00;102711.25;5084205;27;63098;-73
2022/11/11 02:52:36;;;;;;;;;6.33;6.00;;;;;13.09;100.00;102706.84;5089802;27;49410;-73
2022/11/11 02:55:03;;;;;;;;;11.00;9.67;;;;;13.07;100.00;102709.47;5085191;27;53035;-74
2022/11/11 02:57:28;;;;;;;;;6.00;6.00;;;;;13.03;100.00;102699.59;5078175;27;45627;-73
2022/11/11 02:59:55;;;;;;;;;5.67;5.67;;;;;13.02;100.00;102699.56;5090337;27;63437;-73
2022/11/11 03:02:20;;;;;;;;;5.33;5.33;;;;;13.03;100.00;102707.56;5094550;27;45548;-73
2022/11/11 03:04:46;;;;;;;;;6.00;6.00;;;;;13.03;100.00;102707.56;5092697;27;45446;-73
2022/11/11 03:07:11;;;;;;;;;9.00;6.00;;;;;12.99;100.00;102702.09;5093804;27;56605;-74
2022/11/11 03:09:36;;;;;;;;;5.00;3.33;;;;;13.00;100.00;102695.97;5093875;27;58280;-73
2022/11/11 03:12:02;;;;;;;;;8.33;7.67;;;;;12.99;100.00;102695.06;5092675;27;52347;-73
2022/11/11 03:14:27;;;;;;;;;7.00;7.00;;;;;13.04;100.00;102706.69;5092728;27;45391;-73
2022/11/11 03:19:36;;;;;;;;;10.00;6.00;;;;;13.05;100.00;102711.19;5094074;27;45500;-73
2022/11/11 03:22:02;;;;;;;;;6.00;6.00;;;;;13.05;100.00;102705.88;5094647;27;45360;-73
2022/11/11 03:25:36;;;;;;;;;10.33;6.00;;;;;13.06;100.00;102702.38;5095990;27;45413;-73
2022/11/11 03:27:14;;;;;;;;;9.67;7.33;;;;;13.07;100.00;102705.91;5088970;27;45299;-73
2022/11/11 03:29:39;;;;;;;;;10.00;7.00;;;;;13.05;100.00;102704.97;5092669;27;45576;-73
2022/11/11 03:32:06;;;;;;;;;11.33;5.67;;;;;13.00;100.00;102702.19;5089332;27;45767;-73
2022/11/11 03:34:31;;;;;;;;;7.00;6.00;;;;;12.98;100.00;102690.59;5078890;27;45604;-74
2022/11/11 03:39:41;;;;;;;;;6.33;6.33;;;;;13.03;100.00;102698.72;5094023;27;45557;-73
2022/11/11 03:42:06;;;;;;;;;7.67;6.00;;;;;12.94;100.00;102686.06;5093426;27;45315;-74
2022/11/11 03:44:32;;;;;;;;;8.33;6.00;;;;;13.00;100.00;102712.78;5096973;27;45218;-73
2022/11/11 03:46:58;;;;;;;;;5.33;5.33;;;;;12.97;100.00;102695.88;5097819;27;45390;-74
2022/11/11 03:49:23;;;;;;;;;7.33;6.00;;;;;13.00;100.00;102701.28;5096529;27;46827;-74
2022/11/11 03:51:48;;;;;;;;;6.33;4.00;;;;;13.01;100.00;102706.63;5095829;27;45283;-73
2022/11/11 03:54:14;;;;;;;;;10.00;6.67;;;;;12.99;100.00;102705.66;5078113;27;56036;-73
2022/11/11 03:56:39;;;;;;;;;8.33;5.00;;;;;12.96;100.00;102707.34;5097742;27;46310;-74
2022/11/11 03:59:04;;;;;;;;;5.00;5.00;;;;;12.97;100.00;102710.03;5098689;27;49665;-74
2022/11/11 04:12:26;;;;;;;;;6.67;6.67;;;;;12.98;100.00;102732.13;5097654;27;45338;-73
2022/11/11 04:17:34;;;;;;;;;11.33;7.00;;;;;12.99;100.00;102737.47;5093454;27;46944;-73
2022/11/11 04:22:44;;;;;;;;;11.00;5.67;;;;;13.02;100.00;102731.38;5097941;27;45230;-73
2022/11/11 04:30:40;;;;;;;;;4.67;3.67;;;;;13.03;100.00;102735.84;5091741;27;45693;-73
2022/11/11 04:33:05;;;;;;;;;10.33;9.33;;;;;13.01;100.00;102730.50;5096049;27;45359;-73
2022/11/11 04:35:31;;;;;;;;;10.33;7.00;;;;;12.97;100.00;102728.59;5089275;27;45471;-73
2022/11/11 04:41:02;;;;;;;;;7.00;5.67;;;;;12.98;100.00;102718.88;5094443;27;45416;-73
2022/11/11 04:43:25;;;;;;;;;6.00;6.00;;;;;12.92;100.00;102708.09;5090583;27;45576;-74
2022/11/11 04:45:51;;;;;;;;;12.33;6.00;;;;;12.93;100.00;102707.22;5090251;27;48202;-73
2022/11/11 04:48:17;;;;;;;;;10.00;5.00;;;;;12.89;100.00;102711.56;5096135;27;45503;-73
2022/11/11 04:50:43;;;;;;;;;7.67;5.67;;;;;12.93;100.00;102725.78;5090037;27;47422;-73
2022/11/11 04:53:11;;;;;;;;;6.67;6.00;;;;;12.91;100.00;102728.41;5094642;27;45280;-74
2022/11/11 04:58:23;;;;;;;;;8.67;8.00;;;;;12.93;100.00;102728.44;5096852;27;45208;-73
2022/11/11 05:00:49;;;;;;;;;6.33;6.33;;;;;12.87;100.00;102715.00;5089775;27;47601;-73
2022/11/11 05:03:15;;;;;;;;;5.33;5.33;;;;;12.90;100.00;102729.25;5090261;27;45156;-73
2022/11/11 05:11:17;;;;;;;;;9.33;5.67;;;;;12.89;100.00;102721.22;5087964;27;45357;-73
2022/11/11 05:22:10;;;;;;;;;10.67;6.00;;;;;12.82;100.00;102707.78;5090747;27;45461;-73
2022/11/11 05:27:20;;;;;;;;;6.33;6.33;;;;;12.80;100.00;102698.00;5095632;27;45196;-73
2022/11/11 05:29:46;;;;;;;;;9.00;5.67;;;;;12.82;100.00;102706.88;5095884;27;45604;-73
2022/11/11 05:32:16;;;;;;;;;9.00;7.67;;;;;12.76;100.00;102694.34;5097263;27;46273;-74
2022/11/11 05:34:41;;;;;;;;;9.33;6.00;;;;;12.85;100.00;102715.84;5092835;27;45453;-73
2022/11/11 05:37:07;;;;;;;;;9.00;6.67;;;;;12.80;100.00;102698.00;5093759;27;49776;-73
2022/11/11 05:39:32;;;;;;;;;13.67;6.67;;;;;12.86;100.00;102716.75;5092739;27;45534;-73
2022/11/11 05:41:57;;;;;;;;;6.00;6.00;;;;;12.89;100.00;102722.16;5090492;27;45440;-73
2022/11/11 05:44:23;;;;;;;;;7.00;7.00;;;;;12.88;100.00;102715.03;5093769;27;45913;-73
2022/11/11 05:46:48;;;;;;;;;8.33;6.00;;;;;12.83;100.00;102698.97;5094112;27;55796;-73
2022/11/11 05:49:16;;;;;;;;;8.33;7.00;;;;;12.87;100.00;102704.38;5094632;27;45505;-73
2022/11/11 05:51:45;;;;;;;;;7.00;6.00;;;;;12.81;100.00;102697.16;5097677;27;45647;-74
2022/11/11 05:54:11;;;;;;;;;6.67;5.00;;;;;12.83;100.00;102700.72;5090287;27;45488;-73
2022/11/11 05:56:36;;;;;;;;;11.00;6.33;;;;;12.83;100.00;102696.31;5092273;27;45174;-74
2022/11/11 05:59:02;;;;;;;;;7.00;6.33;;;;;12.82;100.00;102713.09;5080231;27;45857;-73
2022/11/11 06:01:27;;;;;;;;;8.00;5.00;;;;;12.82;100.00;102709.53;5092098;27;46574;-74
2022/11/11 06:03:53;;;;;;;;;9.00;5.33;;;;;12.78;100.00;102704.97;5093254;27;59860;-73
2022/11/11 06:06:18;;;;;;;;;10.33;6.33;;;;;12.73;100.00;102703.94;5090627;27;45299;-73
2022/11/11 06:08:43;;;;;;;;;8.33;8.33;;;;;12.75;100.00;102687.25;5090975;27;45275;-73
2022/11/11 06:11:09;;;;;;;;;5.67;4.00;;;;;12.88;100.00;102712.38;5090554;27;46495;-73
2022/11/11 06:13:34;;;;;;;;;12.00;9.00;;;;;12.83;100.00;102711.34;5095480;27;45284;-73
2022/11/11 06:16:00;;;;;;;;;9.33;7.67;;;;;12.88;100.00;102716.78;5076619;27;45523;-73
2022/11/11 06:18:26;;;;;;;;;10.00;3.67;;;;;12.84;100.00;102715.81;5092862;27;45623;-73
2022/11/11 06:20:53;;;;;;;;;6.67;6.67;;;;;12.70;100.00;102702.09;5096120;27;45624;-74
2022/11/11 06:23:18;;;;;;;;;8.00;6.67;;;;;12.75;100.00;102716.41;5075470;28;45512;-72
2022/11/11 06:28:27;;;;;;;;;6.00;5.33;;;;;12.75;100.00;102731.41;5091747;27;45577;-73
2022/11/11 06:30:53;;;;;;;;;7.67;7.67;;;;;12.72;100.00;102731.28;5096085;27;46532;-73
2022/11/11 06:33:19;;;;;;;;;5.67;5.67;;;;;12.74;100.00;102740.22;5092396;27;50543;-73
2022/11/11 06:35:44;;;;;;;;;8.00;5.33;;;;;12.67;100.00;102733.78;5097143;27;45496;-73
2022/11/11 06:38:10;;;;;;;;;9.00;7.00;;;;;12.71;100.00;102741.00;5092578;27;45380;-73
2022/11/11 06:40:35;;;;;;;;;7.33;7.33;;;;;12.72;100.00;102747.19;5087109;27;56323;-73
2022/11/11 06:43:00;;;;;;;;;7.33;7.33;;;;;12.68;100.00;102742.69;5093697;27;52070;-73
2022/11/11 06:45:28;;;;;;;;;9.33;5.33;;;;;12.69;100.00;102742.72;5089089;27;45320;-73
2022/11/11 06:47:53;;;;;;;;;9.33;6.33;;;;;12.69;100.00;102749.78;5093729;27;45379;-73
2022/11/11 06:50:19;;;;;;;;;5.67;3.67;;;;;12.72;100.00;102763.09;5094568;27;46612;-73
2022/11/11 06:52:45;;;;;;;;;7.00;4.00;;;;;12.70;100.00;102759.53;5096386;27;45747;-73
2022/11/11 06:55:10;;;;;;;;;5.00;5.00;;;;;12.64;100.00;102754.91;5092128;27;45422;-74
2022/11/11 06:57:36;;;;;;;;;6.33;5.00;;;;;12.66;100.00;102760.25;5073043;27;45802;-74
2022/11/11 07:00:05;;;;;;;;;9.00;7.00;;;;;12.66;100.00;102761.16;5090767;27;46491;-73
2022/11/11 07:02:31;;;;;;;;;7.33;5.33;;;;;12.68;100.00;102767.44;5095604;27;45450;-74
2022/11/11 07:04:56;;;;;;;;;6.00;4.00;;;;;12.72;100.00;102769.31;5091640;27;47805;-74
2022/11/11 07:07:21;;;;;;;;;9.00;7.33;;;;;12.74;100.00;102777.34;5085892;27;53796;-73
2022/11/11 07:09:47;;;;;;;;;5.00;5.00;;;;;12.75;100.00;102779.13;5092084;27;46063;-73
2022/11/11 07:12:12;;;;;;;;;6.00;5.00;;;;;12.71;100.00;102762.22;5088527;27;45423;-73
2022/11/11 07:14:38;;;;;;;;;5.00;4.00;;;;;12.73;100.00;102775.50;5093516;27;45482;-73
2022/11/11 07:17:03;;;;;;;;;4.00;4.00;;;;;12.77;100.00;102778.31;5088605;27;45374;-73
2022/11/11 07:19:29;;;;;;;;;6.00;4.67;;;;;12.79;100.00;102767.78;5092240;27;46087;-73
2022/11/11 07:21:54;;;;;;;;;7.33;5.67;;;;;12.78;100.00;102766.88;5092930;27;45488;-73
2022/11/11 07:24:20;;;;;;;;;4.00;4.00;;;;;12.81;100.00;102760.78;5091892;27;48515;-73
2022/11/11 07:26:45;;;;;;;;;2.00;2.00;;;;;12.84;100.00;102759.13;5093252;27;46307;-74
2022/11/11 07:29:16;;;;;;;;;8.00;3.67;;;;;12.84;100.00;102761.78;5094288;27;46396;-73
2022/11/11 07:31:42;;;;;;;;;7.67;4.00;;;;;12.83;100.00;102745.81;5094214;27;45326;-73
2022/11/11 07:34:07;;;;;;;;;5.67;3.00;;;;;12.85;100.00;102749.41;5091014;27;45440;-73
2022/11/11 07:36:33;;;;;;;;;4.00;4.00;;;;;12.94;100.00;102764.69;5086263;27;45535;-74
2022/11/11 07:38:59;;;;;;;;;5.00;3.67;;;;;12.94;100.00;102760.28;5095672;27;62360;-74
2022/11/11 07:41:24;;;;;;;;;3.00;3.00;;;;;12.93;100.00;102753.19;5088197;27;45471;-74
2022/11/11 07:43:49;;;;;;;;;4.00;4.00;;;;;13.01;100.00;102758.78;5089753;27;45463;-74
2022/11/11 07:46:15;;;;;;;;;3.33;3.33;;;;;13.00;100.00;102760.53;5094222;27;45556;-73
2022/11/11 07:48:40;;;;;;;;;3.67;3.67;;;;;13.01;100.00;102759.66;5088704;27;47613;-73
2022/11/11 07:51:06;;;;;;;;;5.00;3.00;;;;;13.00;100.00;102746.38;5094373;27;45191;-73
2022/11/11 07:53:31;;;;;;;;;5.33;4.67;;;;;13.03;100.00;102752.66;5089529;27;45947;-74
2022/11/11 07:55:56;;;;;;;;;4.33;3.00;;;;;13.09;100.00;102746.63;5091010;27;45469;-73
2022/11/11 07:58:22;;;;;;;;;5.33;5.33;;;;;13.07;100.00;102749.25;5091998;27;45708;-73
2022/11/11 08:00:47;;;;;;;;;5.67;5.00;;;;;13.11;100.00;102742.28;5088798;27;49957;-73
2022/11/11 08:03:13;;;;;;;;;8.33;5.00;;;;;13.13;100.00;102745.88;5094806;27;45915;-73
2022/11/11 08:05:38;;;;;;;;;6.00;4.67;;;;;13.16;100.00;102742.44;5089450;27;45468;-75
2022/11/11 08:08:07;;;;;;;;;10.67;9.00;;;;;13.23;100.00;102752.41;5092268;27;45667;-73
2022/11/11 08:10:33;;;;;;;;;6.00;4.67;;;;;13.23;100.00;102749.75;5090521;27;45337;-75
2022/11/11 08:15:44;;;;;;;;;10.67;5.00;;;;;13.36;100.00;102757.22;5085758;27;45604;-72
2022/11/11 08:18:10;;;;;;;;;5.33;5.33;;;;;13.31;100.00;102737.63;5093236;27;45599;-74
2022/11/11 08:20:35;;;;;;;;;8.33;5.67;;;;;13.42;100.00;102754.75;5091600;27;49045;-73
2022/11/11 08:23:03;;;;;;;;;7.00;4.33;;;;;13.45;100.00;102756.63;5091702;27;45451;-74
2022/11/11 08:25:32;;;;;;;;;6.00;4.00;;;;;13.40;100.00;102753.81;5096949;27;45433;-73
2022/11/11 08:28:02;;;;;;;;;7.00;5.00;;;;;13.46;100.00;102758.41;5089749;27;47499;-73
2022/11/11 08:30:28;;;;;;;;;8.33;6.67;;;;;13.48;100.00;102768.22;5096016;27;45478;-74
2022/11/11 08:33:01;;;;;;;;;10.33;6.00;;;;;13.52;100.00;102763.91;5095374;27;46285;-75
2022/11/11 08:35:27;;;;;;;;;6.00;5.00;;;;;13.50;100.00;102744.38;5089478;27;45667;-73
2022/11/11 08:37:53;;;;;;;;;4.67;4.67;;;;;13.54;100.00;102743.63;5096337;27;46414;-74
2022/11/11 08:40:19;;;;;;;;;11.00;6.67;;;;;13.61;100.00;102745.59;5098504;27;45430;-75
2022/11/11 08:42:44;;;;;;;;;6.33;6.33;;;;;13.63;100.00;102758.06;5091087;27;53581;-73
2022/11/11 08:45:09;;;;;;;;;8.00;7.00;;;;;13.60;100.00;102751.75;5082240;27;45650;-75
2022/11/11 08:47:36;;;;;;;;;11.00;7.00;;;;;13.66;100.00;102762.56;5087651;27;45853;-74
2022/11/11 08:50:02;;;;;;;;;10.00;7.00;;;;;13.69;100.00;102764.38;5093281;27;45370;-73
2022/11/11 08:52:27;;;;;;;;;7.33;6.00;;;;;13.68;100.00;102758.19;5096952;27;45375;-74
2022/11/11 08:54:52;;;;;;;;;5.00;3.33;;;;;13.68;100.00;102758.19;5098385;27;45442;-74
2022/11/11 08:57:18;;;;;;;;;11.00;6.67;;;;;13.68;100.00;102755.53;5097293;27;46691;-73
2022/11/11 08:59:43;;;;;;;;;10.67;8.00;;;;;13.74;100.00;102766.34;5098658;27;45296;-73
2022/11/11 09:02:12;;;;;;;;;10.33;9.33;;;;;13.72;100.00;102765.38;5097455;27;55021;-73
2022/11/11 09:04:40;;;;;;;;;8.67;7.33;;;;;13.75;100.00;102776.09;5098586;27;45336;-73
2022/11/11 09:07:07;;;;;;;;;13.00;9.33;;;;;13.73;100.00;102785.75;5096992;27;46313;-74
2022/11/11 09:09:32;;;;;;;;;6.00;6.00;;;;;13.73;100.00;102795.50;5097769;27;45534;-73
2022/11/11 09:11:58;;;;;;;;;8.67;6.00;;;;;13.69;100.00;102786.56;5097017;27;45703;-73
2022/11/11 09:14:23;;;;;;;;;7.00;7.00;;;;;13.71;100.00;102786.59;5096740;27;45389;-73
2022/11/11 09:16:49;;;;;;;;;10.00;7.00;;;;;13.66;100.00;102788.22;5094163;27;46346;-73
2022/11/11 09:19:14;;;;;;;;;12.33;7.00;;;;;13.66;100.00;102782.91;5097239;27;46162;-73
2022/11/11 09:21:39;;;;;;;;;8.33;7.00;;;;;13.71;100.00;102790.13;5097626;27;46025;-74
2022/11/11 09:24:05;;;;;;;;;7.00;7.00;;;;;13.72;100.00;102789.28;5097884;27;47043;-74
2022/11/11 09:26:30;;;;;;;;;8.33;7.00;;;;;13.76;100.00;102790.28;5097971;27;47446;-74
2022/11/11 09:28:56;;;;;;;;;7.67;7.67;;;;;13.79;100.00;102782.38;5096584;27;45311;-74
2022/11/11 09:31:22;;;;;;;;;9.33;8.33;;;;;13.79;100.00;102779.72;5090439;27;49627;-73
2022/11/11 09:33:49;;;;;;;;;7.00;7.00;;;;;13.83;100.00;102786.94;5090604;27;45990;-73
2022/11/11 09:36:14;;;;;;;;;12.67;12.67;;;;;13.83;100.00;102787.84;5093326;27;47596;-75
2022/11/11 09:38:39;;;;;;;;;14.00;11.00;;;;;13.91;100.00;102797.81;5089268;27;45516;-73
2022/11/11 09:41:29;;;;;;;;;11.00;10.33;;;;;13.93;100.00;102796.97;5093935;27;45472;-74
2022/11/11 09:43:56;;;;;;;;;8.33;8.33;;;;;13.97;100.00;102795.31;5096623;27;45262;-74
2022/11/11 09:46:27;;;;;;;;;10.67;10.33;;;;;14.00;100.00;102798.94;5093769;27;46506;-73
2022/11/11 09:49:07;;;;;;;;;10.67;7.67;;;;;14.02;100.00;102796.34;5096362;27;45573;-74
2022/11/11 09:52:04;;;;;;;;;7.67;7.67;;;;;14.09;100.00;102793.88;5080030;27;45247;-73
2022/11/11 09:54:54;;;;;;;;;10.00;6.00;;;;;14.18;100.00;102792.38;5096904;27;45544;-73
2022/11/11 09:57:34;;;;;;;;;7.67;5.00;;;;;14.24;100.00;102793.41;5091430;27;46773;-73
2022/11/11 10:00:01;;;;;;;;;7.00;7.00;;;;;14.23;100.00;102788.97;5093904;27;45480;-74
2022/11/11 10:02:40;;;;;;;;;5.00;5.00;;;;;14.33;100.00;102806.06;5093088;27;45427;-73
2022/11/11 10:05:11;;;;;;;;;6.00;6.00;;;;;14.37;100.00;102805.28;5096292;27;45293;-74
2022/11/11 10:07:45;;;;;;;;;7.00;6.00;;;;;14.38;100.00;102808.00;5067831;27;47418;-74
2022/11/11 10:10:17;;;;;;;;;6.00;5.00;;;;;14.35;100.00;102791.94;5097561;27;45507;-74
2022/11/11 10:12:48;;;;;;;;;7.67;5.00;;;;;14.38;100.00;102807.06;5076699;27;45372;-73
2022/11/11 10:15:15;;;;;;;;;6.00;4.33;;;;;14.40;100.00;102811.56;5097560;27;45278;-74
2022/11/11 10:18:05;;;;;;;;;5.00;5.00;;;;;14.36;100.00;102817.66;5089039;27;46946;-73
2022/11/11 10:20:33;;;;;;;;;9.33;6.67;;;;;14.30;100.00;102803.31;5085287;27;45443;-74
2022/11/11 10:23:03;;;;;;;;;6.00;6.00;;;;;14.28;100.00;102800.63;5091612;27;45339;-74
2022/11/11 10:25:29;;;;;;;;;7.67;7.67;;;;;14.30;100.00;102798.91;5075501;28;45313;-74
2022/11/11 10:27:58;;;;;;;;;8.00;8.00;;;;;14.23;100.00;102786.31;5086882;27;60965;-75
2022/11/11 10:30:29;;;;;;;;;8.67;8.67;;;;;14.44;100.00;102814.34;5079032;27;45418;-75
2022/11/11 10:32:57;;;;;;;;;8.33;7.00;;;;;14.42;100.00;102816.94;5094640;27;45435;-74
2022/11/11 10:35:27;;;;;;;;;8.33;6.33;;;;;14.40;100.00;102813.34;5081192;27;45430;-73
2022/11/11 10:38:18;;;;;;;;;6.00;6.00;;;;;14.37;100.00;102803.50;5090589;27;46728;-74
2022/11/11 10:40:48;;;;;;;;;8.33;8.33;;;;;14.38;100.00;102813.31;5094408;27;45493;-73
2022/11/11 10:43:23;;;;;;;;;10.33;8.33;;;;;14.37;100.00;102797.28;5089530;27;45325;-74
2022/11/11 10:46:28;;;;;;;;;9.00;7.33;;;;;14.44;100.00;102809.91;5094685;27;45520;-72
2022/11/11 10:48:58;;;;;;;;;5.33;5.33;;;;;14.47;100.00;102811.75;5008391;28;47756;-74
2022/11/11 10:51:27;;;;;;;;;7.00;7.00;;;;;14.45;100.00;102814.38;5013926;28;45584;-74
2022/11/11 10:54:20;;;;;;;;;7.00;7.00;;;;;14.47;100.00;102812.66;5048623;27;45438;-74
2022/11/11 10:56:54;;;;;;;;;10.67;6.33;;;;;14.46;100.00;102809.94;5091837;27;45147;-76
2022/11/11 10:59:28;;;;;;;;;9.00;7.67;;;;;14.43;100.00;102813.41;5094834;27;46680;-75
2022/11/11 11:02:04;;;;;;;;;7.00;7.00;;;;;14.42;100.00;102804.53;5089709;27;45415;-74
2022/11/11 11:04:43;;;;;;;;;7.67;7.00;;;;;14.50;100.00;102815.41;5093101;27;45514;-73
2022/11/11 11:07:13;;;;;;;;;8.00;6.00;;;;;14.51;100.00;102819.88;5075652;27;45311;-75
2022/11/11 11:09:57;;;;;;;;;8.00;7.00;;;;;14.46;100.00;102797.56;5075083;27;46056;-74
2022/11/11 11:12:29;;;;;;;;;6.00;6.00;;;;;14.62;100.00;102812.19;5078719;27;45360;-75
2022/11/11 11:15:00;;;;;;;;;6.00;6.00;;;;;14.69;100.00;102811.47;5078224;27;45260;-75
2022/11/11 11:17:36;;;;;;;;;7.67;7.67;;;;;14.73;100.00;102800.06;5093635;27;45501;-73
2022/11/11 11:20:20;;;;;;;;;10.33;8.00;;;;;14.82;100.00;102794.97;5090644;27;47563;-75
2022/11/11 11:22:51;;;;;;;;;10.67;7.33;;;;;14.77;100.00;102771.78;5072616;27;45728;-75
2022/11/11 11:25:19;;;;;;;;;9.00;9.00;;;;;14.91;100.00;102794.28;5084244;27;45528;-74
2022/11/11 11:27:45;;;;;;;;;8.00;8.00;;;;;14.92;100.00;102782.81;5086788;27;45633;-75
2022/11/11 11:30:13;;;;;;;;;9.00;4.33;;;;;15.02;100.00;102787.50;5068016;27;46768;-74
2022/11/11 11:32:41;;;;;;;;;9.00;8.00;;;;;15.03;100.00;102783.06;5092640;27;45392;-74
2022/11/11 11:35:06;;;;;;;;;15.67;9.00;;;;;15.11;100.00;102771.72;5089970;27;45204;-76
2022/11/11 11:37:48;;;;;;;;;12.67;10.00;;;;;15.19;100.00;102772.81;5075379;27;45429;-73
2022/11/11 11:40:13;;;;;;;;;10.00;8.67;;;;;15.23;100.00;102770.22;5093697;27;47368;-74
2022/11/11 11:42:39;;;;;;;;;10.67;8.67;;;;;15.26;100.00;102765.88;5088862;27;45446;-75
2022/11/11 11:45:24;;;;;;;;;8.00;8.00;;;;;15.32;100.00;102773.09;5093025;27;45326;-75
2022/11/11 11:48:15;;;;;;;;;10.67;10.00;;;;;15.37;100.00;102764.34;5082961;27;45568;-74
2022/11/11 11:50:52;;;;;;;;;8.00;8.00;;;;;15.40;100.00;102758.19;5073420;27;46534;-74
2022/11/11 11:54:01;;;;;;;;;11.00;11.00;;;;;15.47;100.00;102757.47;5092802;27;45502;-74
2022/11/11 11:56:35;;;;;;;;;8.67;8.67;;;;;15.49;100.00;102758.38;5083930;27;45506;-76
2022/11/11 11:59:13;;;;;;;;;9.33;9.33;;;;;15.46;100.00;102753.91;5096676;27;46838;-75
2022/11/11 12:01:38;;;;;;;;;8.00;8.00;;;;;15.47;100.00;102744.16;5096095;27;46097;-76
2022/11/11 12:04:25;;;;;;;;;9.67;8.33;;;;;15.52;100.00;102747.81;5075937;27;45576;-75
2022/11/11 12:07:26;;;;;;;;;12.67;10.67;;;;;15.57;100.00;102746.13;5094059;27;45437;-75
2022/11/11 12:09:55;;;;;;;;;11.33;10.00;;;;;15.51;100.00;102739.78;5087836;27;47493;-75
2022/11/11 12:12:28;;;;;;;;;10.33;9.33;;;;;15.39;100.00;102736.00;5090703;27;46399;-74
2022/11/11 12:15:11;;;;;;;;;9.67;9.67;;;;;15.31;100.00;102736.69;5091537;27;45526;-76
2022/11/11 12:20:33;;;;;;;;;11.33;9.00;;;;;15.09;100.00;102744.19;5076418;27;47183;-73
2022/11/11 12:23:41;;;;;;;;;9.33;7.67;;;;;15.02;100.00;102742.28;5067533;27;46270;-76
2022/11/11 12:26:33;;;;;;;;;12.00;8.33;;;;;14.93;100.00;102734.97;5056850;27;46056;-75
2022/11/11 12:29:27;;;;;;;;;7.00;7.00;;;;;14.84;100.00;102731.19;5074072;27;45472;-75
2022/11/11 12:31:52;;;;;;;;;12.33;8.67;;;;;14.79;100.00;102735.50;5065525;27;45949;-75
2022/11/11 12:34:36;;;;;;;;;14.00;12.33;;;;;14.75;100.00;102728.28;5065073;27;46296;-76
2022/11/11 12:37:33;;;;;;;;;12.33;8.67;;;;;14.70;100.00;102730.88;5070982;27;45831;-76
2022/11/11 12:40:32;;;;;;;;;11.67;11.67;;;;;14.67;100.00;102728.13;5038820;27;46120;-76
2022/11/11 12:43:16;;;;;;;;;15.33;10.00;;;;;14.62;100.00;102725.34;5044066;28;45667;-75
2022/11/11 12:46:02;;;;;;;;;11.00;9.67;;;;;14.61;100.00;102725.31;5068349;27;45695;-73